sensor_id;sensor_type;location;lat;lon;timestamp;temperature;humidity
11559;DHT22;5835;42.930;25.178;2023-02-12T00:00:51;-3.20;1.00
11559;DHT22;5835;42.930;25.178;2023-02-12T00:03:20;-3.20;22.40
11559;DHT22;5835;42.930;25.178;2023-02-12T00:05:48;-3.10;1.00
11559;DHT22;5835;42.930;25.178;2023-02-12T00:08:15;-3.00;1.00
11559;DHT22;5835;42.930;25.178;2023-02-12T00:10:43;-3.10;22.20
11559;DHT22;5835;42.930;25.178;2023-02-12T00:13:11;-3.20;20.50
11559;DHT22;5835;42.930;25.178;2023-02-12T00:15:40;-3.30;99.90
11559;DHT22;5835;42.930;25.178;2023-02-12T00:18:08;-3.30;1.00
11559;DHT22;5835;42.930;25.178;2023-02-12T00:20:38;-3.20;1.00
11559;DHT22;5835;42.930;25.178;2023-02-12T00:23:05;-3.20;99.90
11559;DHT22;5835;42.930;25.178;2023-02-12T00:25:33;-3.20;99.90
11559;DHT22;5835;42.930;25.178;2023-02-12T00:28:01;-3.10;99.90
11559;DHT22;5835;42.930;25.178;2023-02-12T00:30:28;-3.00;99.90
11559;DHT22;5835;42.930;25.178;2023-02-12T00:32:58;-3.00;99.90
11559;DHT22;5835;42.930;25.178;2023-02-12T00:35:26;-3.30;1.00
11559;DHT22;5835;42.930;25.178;2023-02-12T00:37:55;-3.60;99.90
11559;DHT22;5835;42.930;25.178;2023-02-12T00:40:23;-3.60;99.90
11559;DHT22;5835;42.930;25.178;2023-02-12T00:42:50;-3.60;99.90
11559;DHT22;5835;42.930;25.178;2023-02-12T00:45:18;-3.50;1.00
11559;DHT22;5835;42.930;25.178;2023-02-12T00:47:48;-3.20;99.90
11559;DHT22;5835;42.930;25.178;2023-02-12T00:50:16;-3.30;99.90
11559;DHT22;5835;42.930;25.178;2023-02-12T00:52:44;-3.30;99.90
11559;DHT22;5835;42.930;25.178;2023-02-12T00:55:13;-3.20;1.00
11559;DHT22;5835;42.930;25.178;2023-02-12T00:57:40;-3.10;99.90
11559;DHT22;5835;42.930;25.178;2023-02-12T01:00:09;-3.30;99.90
11559;DHT22;5835;42.930;25.178;2023-02-12T01:02:37;-3.40;99.90
11559;DHT22;5835;42.930;25.178;2023-02-12T01:05:04;-3.50;1.00
11559;DHT22;5835;42.930;25.178;2023-02-12T01:07:32;-3.50;79.20
11559;DHT22;5835;42.930;25.178;2023-02-12T01:10:00;-3.50;67.50
11559;DHT22;5835;42.930;25.178;2023-02-12T01:12:28;-3.90;1.00
11559;DHT22;5835;42.930;25.178;2023-02-12T01:14:56;-4.00;1.00
11559;DHT22;5835;42.930;25.178;2023-02-12T01:17:24;-4.10;1.00
11559;DHT22;5835;42.930;25.178;2023-02-12T01:19:57;-4.10;99.90
11559;DHT22;5835;42.930;25.178;2023-02-12T01:22:24;-4.30;1.00
11559;DHT22;5835;42.930;25.178;2023-02-12T01:24:54;-4.10;1.00
11559;DHT22;5835;42.930;25.178;2023-02-12T01:27:22;-4.00;1.00
11559;DHT22;5835;42.930;25.178;2023-02-12T01:29:51;-3.90;1.00
11559;DHT22;5835;42.930;25.178;2023-02-12T01:32:19;-3.80;1.00
11559;DHT22;5835;42.930;25.178;2023-02-12T01:34:46;-3.80;1.00
11559;DHT22;5835;42.930;25.178;2023-02-12T01:37:14;-3.90;1.00
11559;DHT22;5835;42.930;25.178;2023-02-12T01:39:41;-3.90;1.00
11559;DHT22;5835;42.930;25.178;2023-02-12T01:42:11;-3.90;1.00
11559;DHT22;5835;42.930;25.178;2023-02-12T01:44:42;-3.90;1.00
11559;DHT22;5835;42.930;25.178;2023-02-12T01:47:16;-3.90;1.00
11559;DHT22;5835;42.930;25.178;2023-02-12T01:49:46;-4.00;1.00
11559;DHT22;5835;42.930;25.178;2023-02-12T01:52:16;-4.00;1.00
11559;DHT22;5835;42.930;25.178;2023-02-12T01:54:46;-3.90;1.00
11559;DHT22;5835;42.930;25.178;2023-02-12T01:57:15;-3.90;1.00
11559;DHT22;5835;42.930;25.178;2023-02-12T01:59:47;-3.80;1.00
11559;DHT22;5835;42.930;25.178;2023-02-12T02:02:18;-3.80;1.00
11559;DHT22;5835;42.930;25.178;2023-02-12T02:04:48;-3.70;99.90
11559;DHT22;5835;42.930;25.178;2023-02-12T02:07:17;-3.60;99.90
11559;DHT22;5835;42.930;25.178;2023-02-12T02:09:45;-3.50;1.00
11559;DHT22;5835;42.930;25.178;2023-02-12T02:12:13;-3.60;99.90
11559;DHT22;5835;42.930;25.178;2023-02-12T02:14:59;-3.50;99.90
11559;DHT22;5835;42.930;25.178;2023-02-12T02:17:45;-3.30;1.00
11559;DHT22;5835;42.930;25.178;2023-02-12T02:20:50;-3.10;1.00
11559;DHT22;5835;42.930;25.178;2023-02-12T02:23:43;-3.20;1.00
11559;DHT22;5835;42.930;25.178;2023-02-12T02:29:49;-3.20;96.00
11559;DHT22;5835;42.930;25.178;2023-02-12T02:32:28;-3.10;99.90
11559;DHT22;5835;42.930;25.178;2023-02-12T02:35:02;-3.00;99.90
11559;DHT22;5835;42.930;25.178;2023-02-12T02:37:34;-2.90;99.90
11559;DHT22;5835;42.930;25.178;2023-02-12T02:40:10;-2.90;99.90
11559;DHT22;5835;42.930;25.178;2023-02-12T02:42:43;-2.80;1.00
11559;DHT22;5835;42.930;25.178;2023-02-12T02:45:15;-3.00;99.90
11559;DHT22;5835;42.930;25.178;2023-02-12T02:47:50;-2.90;99.90
11559;DHT22;5835;42.930;25.178;2023-02-12T02:50:21;-2.90;1.00
11559;DHT22;5835;42.930;25.178;2023-02-12T02:52:53;-2.90;99.90
11559;DHT22;5835;42.930;25.178;2023-02-12T02:55:26;-2.70;1.00
11559;DHT22;5835;42.930;25.178;2023-02-12T02:57:56;-2.70;99.90
11559;DHT22;5835;42.930;25.178;2023-02-12T03:00:30;-2.70;47.40
11559;DHT22;5835;42.930;25.178;2023-02-12T03:03:05;-2.60;1.00
11559;DHT22;5835;42.930;25.178;2023-02-12T03:05:38;-2.50;1.00
11559;DHT22;5835;42.930;25.178;2023-02-12T03:08:10;-2.50;99.90
11559;DHT22;5835;42.930;25.178;2023-02-12T03:10:41;-2.40;99.90
11559;DHT22;5835;42.930;25.178;2023-02-12T03:13:12;-2.40;99.90
11559;DHT22;5835;42.930;25.178;2023-02-12T03:15:44;-2.30;99.90
11559;DHT22;5835;42.930;25.178;2023-02-12T03:18:18;-2.30;1.00
11559;DHT22;5835;42.930;25.178;2023-02-12T03:20:49;-2.30;99.90
11559;DHT22;5835;42.930;25.178;2023-02-12T03:23:21;-2.20;99.90
11559;DHT22;5835;42.930;25.178;2023-02-12T03:25:52;-2.10;1.00
11559;DHT22;5835;42.930;25.178;2023-02-12T03:28:26;-1.90;99.90
11559;DHT22;5835;42.930;25.178;2023-02-12T03:31:00;-2.00;1.00
11559;DHT22;5835;42.930;25.178;2023-02-12T03:33:38;-1.90;99.90
11559;DHT22;5835;42.930;25.178;2023-02-12T03:36:15;-1.90;1.00
11559;DHT22;5835;42.930;25.178;2023-02-12T03:38:48;-1.80;99.90
11559;DHT22;5835;42.930;25.178;2023-02-12T03:41:21;-1.80;99.90
11559;DHT22;5835;42.930;25.178;2023-02-12T03:43:53;-1.90;1.00
11559;DHT22;5835;42.930;25.178;2023-02-12T03:46:25;-2.00;1.00
11559;DHT22;5835;42.930;25.178;2023-02-12T03:49:02;-2.00;99.90
11559;DHT22;5835;42.930;25.178;2023-02-12T03:51:36;-2.10;99.90
11559;DHT22;5835;42.930;25.178;2023-02-12T03:54:06;-2.00;1.00
11559;DHT22;5835;42.930;25.178;2023-02-12T03:56:41;-2.00;99.90
11559;DHT22;5835;42.930;25.178;2023-02-12T03:59:10;-1.90;99.90
11559;DHT22;5835;42.930;25.178;2023-02-12T04:01:38;-1.80;13.40
11559;DHT22;5835;42.930;25.178;2023-02-12T04:04:09;-1.70;99.90
11559;DHT22;5835;42.930;25.178;2023-02-12T04:06:37;-1.60;99.90
11559;DHT22;5835;42.930;25.178;2023-02-12T04:09:07;-1.60;99.90
11559;DHT22;5835;42.930;25.178;2023-02-12T04:11:45;-1.60;12.80
11559;DHT22;5835;42.930;25.178;2023-02-12T04:14:21;-1.50;1.00
11559;DHT22;5835;42.930;25.178;2023-02-12T04:16:56;-1.50;1.00
11559;DHT22;5835;42.930;25.178;2023-02-12T04:19:33;-1.50;1.00
11559;DHT22;5835;42.930;25.178;2023-02-12T04:22:14;-1.50;1.00
11559;DHT22;5835;42.930;25.178;2023-02-12T04:24:49;-1.40;1.00
11559;DHT22;5835;42.930;25.178;2023-02-12T04:27:25;-1.40;1.00
11559;DHT22;5835;42.930;25.178;2023-02-12T04:30:02;-1.40;1.00
11559;DHT22;5835;42.930;25.178;2023-02-12T04:32:36;-1.10;1.00
11559;DHT22;5835;42.930;25.178;2023-02-12T04:35:14;-1.00;1.00
11559;DHT22;5835;42.930;25.178;2023-02-12T04:37:44;-0.90;1.00
11559;DHT22;5835;42.930;25.178;2023-02-12T04:40:17;-0.60;1.00
11559;DHT22;5835;42.930;25.178;2023-02-12T04:42:46;-0.40;1.00
11559;DHT22;5835;42.930;25.178;2023-02-12T04:45:20;-0.10;1.00
11559;DHT22;5835;42.930;25.178;2023-02-12T04:47:48;0.10;1.00
11559;DHT22;5835;42.930;25.178;2023-02-12T04:50:18;0.40;99.90
11559;DHT22;5835;42.930;25.178;2023-02-12T04:52:46;0.40;99.90
11559;DHT22;5835;42.930;25.178;2023-02-12T04:55:14;0.50;99.90
11559;DHT22;5835;42.930;25.178;2023-02-12T04:57:42;0.80;99.90
11559;DHT22;5835;42.930;25.178;2023-02-12T05:00:12;0.80;99.90
11559;DHT22;5835;42.930;25.178;2023-02-12T05:02:40;0.90;99.90
11559;DHT22;5835;42.930;25.178;2023-02-12T05:05:10;0.80;99.90
11559;DHT22;5835;42.930;25.178;2023-02-12T05:07:39;0.90;99.90
11559;DHT22;5835;42.930;25.178;2023-02-12T05:10:08;1.10;99.90
11559;DHT22;5835;42.930;25.178;2023-02-12T05:12:35;0.90;99.90
11559;DHT22;5835;42.930;25.178;2023-02-12T05:15:04;0.70;99.90
11559;DHT22;5835;42.930;25.178;2023-02-12T05:17:31;0.70;99.90
11559;DHT22;5835;42.930;25.178;2023-02-12T05:19:59;0.60;99.90
11559;DHT22;5835;42.930;25.178;2023-02-12T05:22:27;0.70;99.90
11559;DHT22;5835;42.930;25.178;2023-02-12T05:24:56;0.60;99.90
11559;DHT22;5835;42.930;25.178;2023-02-12T05:27:23;0.50;99.90
11559;DHT22;5835;42.930;25.178;2023-02-12T05:29:51;0.60;99.90
11559;DHT22;5835;42.930;25.178;2023-02-12T05:32:18;0.70;99.90
11559;DHT22;5835;42.930;25.178;2023-02-12T05:34:46;0.80;99.90
11559;DHT22;5835;42.930;25.178;2023-02-12T05:37:13;1.10;99.90
11559;DHT22;5835;42.930;25.178;2023-02-12T05:39:41;1.30;99.90
11559;DHT22;5835;42.930;25.178;2023-02-12T05:42:09;1.30;99.90
11559;DHT22;5835;42.930;25.178;2023-02-12T05:44:37;1.50;99.90
11559;DHT22;5835;42.930;25.178;2023-02-12T05:47:05;1.50;99.90
11559;DHT22;5835;42.930;25.178;2023-02-12T05:49:32;1.50;99.90
11559;DHT22;5835;42.930;25.178;2023-02-12T05:51:59;1.60;99.90
11559;DHT22;5835;42.930;25.178;2023-02-12T05:54:27;1.60;99.90
11559;DHT22;5835;42.930;25.178;2023-02-12T05:56:54;1.60;99.90
11559;DHT22;5835;42.930;25.178;2023-02-12T05:59:23;1.70;99.90
11559;DHT22;5835;42.930;25.178;2023-02-12T06:01:52;1.80;99.90
11559;DHT22;5835;42.930;25.178;2023-02-12T06:04:23;1.80;99.90
11559;DHT22;5835;42.930;25.178;2023-02-12T06:06:52;1.90;99.90
11559;DHT22;5835;42.930;25.178;2023-02-12T06:09:21;1.90;99.90
11559;DHT22;5835;42.930;25.178;2023-02-12T06:11:49;2.20;99.90
11559;DHT22;5835;42.930;25.178;2023-02-12T06:14:18;2.20;99.90
11559;DHT22;5835;42.930;25.178;2023-02-12T06:16:49;2.20;99.90
11559;DHT22;5835;42.930;25.178;2023-02-12T06:19:17;2.10;99.90
11559;DHT22;5835;42.930;25.178;2023-02-12T06:21:45;2.20;99.90
11559;DHT22;5835;42.930;25.178;2023-02-12T06:24:14;2.20;99.90
11559;DHT22;5835;42.930;25.178;2023-02-12T06:26:42;2.20;99.90
11559;DHT22;5835;42.930;25.178;2023-02-12T06:29:10;2.20;99.90
11559;DHT22;5835;42.930;25.178;2023-02-12T06:31:38;2.30;99.90
11559;DHT22;5835;42.930;25.178;2023-02-12T06:34:11;2.30;99.90
11559;DHT22;5835;42.930;25.178;2023-02-12T06:36:41;2.30;99.90
11559;DHT22;5835;42.930;25.178;2023-02-12T06:39:10;2.30;99.90
11559;DHT22;5835;42.930;25.178;2023-02-12T06:41:39;2.30;99.90
11559;DHT22;5835;42.930;25.178;2023-02-12T06:44:07;2.30;99.90
11559;DHT22;5835;42.930;25.178;2023-02-12T06:46:35;2.50;99.90
11559;DHT22;5835;42.930;25.178;2023-02-12T06:49:03;2.40;99.90
11559;DHT22;5835;42.930;25.178;2023-02-12T06:51:32;2.40;99.90
11559;DHT22;5835;42.930;25.178;2023-02-12T06:54:01;2.40;99.90
11559;DHT22;5835;42.930;25.178;2023-02-12T06:56:28;2.50;99.90
11559;DHT22;5835;42.930;25.178;2023-02-12T06:58:58;2.50;99.90
11559;DHT22;5835;42.930;25.178;2023-02-12T07:01:27;2.50;99.90
11559;DHT22;5835;42.930;25.178;2023-02-12T07:03:56;2.50;99.90
11559;DHT22;5835;42.930;25.178;2023-02-12T07:06:27;2.50;99.90
11559;DHT22;5835;42.930;25.178;2023-02-12T07:08:57;2.50;99.90
11559;DHT22;5835;42.930;25.178;2023-02-12T07:11:25;2.60;99.90
11559;DHT22;5835;42.930;25.178;2023-02-12T07:13:53;2.60;99.90
11559;DHT22;5835;42.930;25.178;2023-02-12T07:16:21;2.60;99.90
11559;DHT22;5835;42.930;25.178;2023-02-12T07:18:49;2.50;99.90
11559;DHT22;5835;42.930;25.178;2023-02-12T07:21:17;2.50;99.90
11559;DHT22;5835;42.930;25.178;2023-02-12T07:23:50;2.50;99.90
11559;DHT22;5835;42.930;25.178;2023-02-12T07:26:20;2.50;99.90
11559;DHT22;5835;42.930;25.178;2023-02-12T07:28:48;2.60;99.90
11559;DHT22;5835;42.930;25.178;2023-02-12T07:31:17;2.60;99.90
11559;DHT22;5835;42.930;25.178;2023-02-12T07:33:46;2.60;99.90
11559;DHT22;5835;42.930;25.178;2023-02-12T07:36:16;2.70;99.90
11559;DHT22;5835;42.930;25.178;2023-02-12T07:38:44;2.70;99.90
11559;DHT22;5835;42.930;25.178;2023-02-12T07:41:14;2.80;99.90
11559;DHT22;5835;42.930;25.178;2023-02-12T07:43:44;2.90;99.90
11559;DHT22;5835;42.930;25.178;2023-02-12T07:46:13;2.90;99.90
11559;DHT22;5835;42.930;25.178;2023-02-12T07:48:41;3.10;99.90
11559;DHT22;5835;42.930;25.178;2023-02-12T07:51:10;3.10;99.90
11559;DHT22;5835;42.930;25.178;2023-02-12T07:53:39;3.20;99.90
11559;DHT22;5835;42.930;25.178;2023-02-12T07:56:09;3.20;99.90
11559;DHT22;5835;42.930;25.178;2023-02-12T07:58:37;3.30;99.90
11559;DHT22;5835;42.930;25.178;2023-02-12T08:01:17;3.30;99.90
11559;DHT22;5835;42.930;25.178;2023-02-12T08:03:48;3.40;99.90
11559;DHT22;5835;42.930;25.178;2023-02-12T08:06:18;3.50;99.90
11559;DHT22;5835;42.930;25.178;2023-02-12T08:08:46;3.40;99.90
11559;DHT22;5835;42.930;25.178;2023-02-12T08:11:14;3.50;99.90
11559;DHT22;5835;42.930;25.178;2023-02-12T08:13:43;3.40;99.90
11559;DHT22;5835;42.930;25.178;2023-02-12T08:16:11;3.60;99.90
11559;DHT22;5835;42.930;25.178;2023-02-12T08:18:41;3.50;99.90
11559;DHT22;5835;42.930;25.178;2023-02-12T08:21:12;3.50;99.90
11559;DHT22;5835;42.930;25.178;2023-02-12T08:23:41;3.60;99.90
11559;DHT22;5835;42.930;25.178;2023-02-12T08:26:10;3.50;99.90
11559;DHT22;5835;42.930;25.178;2023-02-12T08:28:40;3.50;99.90
11559;DHT22;5835;42.930;25.178;2023-02-12T08:31:10;3.50;99.90
11559;DHT22;5835;42.930;25.178;2023-02-12T08:33:40;3.40;99.90
11559;DHT22;5835;42.930;25.178;2023-02-12T08:36:09;3.50;99.90
11559;DHT22;5835;42.930;25.178;2023-02-12T08:38:38;3.50;99.90
11559;DHT22;5835;42.930;25.178;2023-02-12T08:41:08;3.70;99.90
11559;DHT22;5835;42.930;25.178;2023-02-12T08:43:36;3.60;99.90
11559;DHT22;5835;42.930;25.178;2023-02-12T08:46:05;3.60;99.90
11559;DHT22;5835;42.930;25.178;2023-02-12T08:48:33;3.80;99.90
11559;DHT22;5835;42.930;25.178;2023-02-12T08:51:07;3.80;99.90
11559;DHT22;5835;42.930;25.178;2023-02-12T08:53:36;3.80;99.90
11559;DHT22;5835;42.930;25.178;2023-02-12T08:56:05;3.80;99.90
11559;DHT22;5835;42.930;25.178;2023-02-12T08:58:33;3.80;99.90
11559;DHT22;5835;42.930;25.178;2023-02-12T09:01:03;3.90;99.90
11559;DHT22;5835;42.930;25.178;2023-02-12T09:03:31;4.00;99.90
11559;DHT22;5835;42.930;25.178;2023-02-12T09:06:01;4.00;99.90
11559;DHT22;5835;42.930;25.178;2023-02-12T09:08:31;4.20;99.90
11559;DHT22;5835;42.930;25.178;2023-02-12T09:10:58;4.20;99.90
11559;DHT22;5835;42.930;25.178;2023-02-12T09:13:26;4.10;99.90
11559;DHT22;5835;42.930;25.178;2023-02-12T09:15:54;4.10;99.90
11559;DHT22;5835;42.930;25.178;2023-02-12T09:18:21;4.30;99.90
11559;DHT22;5835;42.930;25.178;2023-02-12T09:20:49;4.20;99.90
11559;DHT22;5835;42.930;25.178;2023-02-12T09:23:16;4.40;99.90
11559;DHT22;5835;42.930;25.178;2023-02-12T09:25:46;4.50;99.90
11559;DHT22;5835;42.930;25.178;2023-02-12T09:28:14;4.30;99.90
11559;DHT22;5835;42.930;25.178;2023-02-12T09:30:41;4.50;99.90
11559;DHT22;5835;42.930;25.178;2023-02-12T09:33:10;4.50;99.90
11559;DHT22;5835;42.930;25.178;2023-02-12T09:35:38;4.40;99.90
11559;DHT22;5835;42.930;25.178;2023-02-12T09:38:06;4.60;99.90
11559;DHT22;5835;42.930;25.178;2023-02-12T09:40:41;4.60;99.90
11559;DHT22;5835;42.930;25.178;2023-02-12T09:43:17;4.30;99.90
11559;DHT22;5835;42.930;25.178;2023-02-12T09:45:50;4.40;99.90
11559;DHT22;5835;42.930;25.178;2023-02-12T09:48:35;4.60;99.90
11559;DHT22;5835;42.930;25.178;2023-02-12T09:51:06;4.90;99.90
11559;DHT22;5835;42.930;25.178;2023-02-12T09:53:38;4.70;99.90
11559;DHT22;5835;42.930;25.178;2023-02-12T09:56:14;4.70;99.90
11559;DHT22;5835;42.930;25.178;2023-02-12T09:58:48;4.70;99.90
11559;DHT22;5835;42.930;25.178;2023-02-12T10:01:19;4.60;99.90
11559;DHT22;5835;42.930;25.178;2023-02-12T10:03:49;4.50;98.50
11559;DHT22;5835;42.930;25.178;2023-02-12T10:06:20;4.70;99.90
11559;DHT22;5835;42.930;25.178;2023-02-12T10:09:11;4.60;99.90
11559;DHT22;5835;42.930;25.178;2023-02-12T10:11:52;4.50;97.00
11559;DHT22;5835;42.930;25.178;2023-02-12T10:17:26;4.60;99.90
11559;DHT22;5835;42.930;25.178;2023-02-12T10:20:19;4.50;99.90
11559;DHT22;5835;42.930;25.178;2023-02-12T10:22:57;4.50;99.70
11559;DHT22;5835;42.930;25.178;2023-02-12T10:25:35;4.70;99.90
11559;DHT22;5835;42.930;25.178;2023-02-12T10:28:12;4.60;99.90
11559;DHT22;5835;42.930;25.178;2023-02-12T10:30:44;4.60;99.90
11559;DHT22;5835;42.930;25.178;2023-02-12T10:33:18;4.60;99.90
11559;DHT22;5835;42.930;25.178;2023-02-12T10:35:50;4.60;99.90
11559;DHT22;5835;42.930;25.178;2023-02-12T10:38:24;4.70;99.90
11559;DHT22;5835;42.930;25.178;2023-02-12T10:40:53;4.80;99.90
11559;DHT22;5835;42.930;25.178;2023-02-12T10:43:23;4.80;99.90
11559;DHT22;5835;42.930;25.178;2023-02-12T10:45:51;4.80;99.90
11559;DHT22;5835;42.930;25.178;2023-02-12T10:48:25;4.90;99.90
11559;DHT22;5835;42.930;25.178;2023-02-12T10:51:07;4.80;99.90
11559;DHT22;5835;42.930;25.178;2023-02-12T10:53:40;4.80;99.90
11559;DHT22;5835;42.930;25.178;2023-02-12T10:56:17;5.00;99.90
11559;DHT22;5835;42.930;25.178;2023-02-12T10:58:53;5.20;99.90
11559;DHT22;5835;42.930;25.178;2023-02-12T11:01:25;5.30;99.90
11559;DHT22;5835;42.930;25.178;2023-02-12T11:03:56;5.20;99.90
11559;DHT22;5835;42.930;25.178;2023-02-12T11:06:26;5.20;99.90
11559;DHT22;5835;42.930;25.178;2023-02-12T11:08:55;5.10;99.90
11559;DHT22;5835;42.930;25.178;2023-02-12T11:11:25;5.20;99.90
11559;DHT22;5835;42.930;25.178;2023-02-12T11:13:55;5.00;99.90
11559;DHT22;5835;42.930;25.178;2023-02-12T11:16:28;4.90;99.90
11559;DHT22;5835;42.930;25.178;2023-02-12T11:19:03;5.10;99.90
11559;DHT22;5835;42.930;25.178;2023-02-12T11:21:32;5.00;99.90
11559;DHT22;5835;42.930;25.178;2023-02-12T11:24:25;5.00;99.90
11559;DHT22;5835;42.930;25.178;2023-02-12T11:27:11;4.90;99.90
11559;DHT22;5835;42.930;25.178;2023-02-12T11:29:39;5.10;99.90
11559;DHT22;5835;42.930;25.178;2023-02-12T11:32:09;5.20;99.90
11559;DHT22;5835;42.930;25.178;2023-02-12T11:34:43;5.10;99.90
11559;DHT22;5835;42.930;25.178;2023-02-12T11:37:15;5.10;99.90
11559;DHT22;5835;42.930;25.178;2023-02-12T11:39:46;5.00;99.90
11559;DHT22;5835;42.930;25.178;2023-02-12T11:42:16;5.20;99.90
11559;DHT22;5835;42.930;25.178;2023-02-12T11:44:48;5.30;99.90
11559;DHT22;5835;42.930;25.178;2023-02-12T11:47:18;5.10;99.90
11559;DHT22;5835;42.930;25.178;2023-02-12T11:49:51;5.10;99.90
11559;DHT22;5835;42.930;25.178;2023-02-12T11:52:22;5.10;99.90
11559;DHT22;5835;42.930;25.178;2023-02-12T11:54:51;5.00;99.90
11559;DHT22;5835;42.930;25.178;2023-02-12T11:57:36;4.90;99.90
11559;DHT22;5835;42.930;25.178;2023-02-12T12:00:13;4.90;99.90
11559;DHT22;5835;42.930;25.178;2023-02-12T12:02:48;4.90;99.90
11559;DHT22;5835;42.930;25.178;2023-02-12T12:05:20;4.80;99.90
11559;DHT22;5835;42.930;25.178;2023-02-12T12:07:51;4.80;99.90
11559;DHT22;5835;42.930;25.178;2023-02-12T12:10:30;4.80;99.90
11559;DHT22;5835;42.930;25.178;2023-02-12T12:13:01;4.90;99.90
11559;DHT22;5835;42.930;25.178;2023-02-12T12:15:33;5.10;99.90
11559;DHT22;5835;42.930;25.178;2023-02-12T12:18:25;5.10;99.90
11559;DHT22;5835;42.930;25.178;2023-02-12T12:21:19;5.20;99.90
11559;DHT22;5835;42.930;25.178;2023-02-12T12:23:52;5.40;99.90
11559;DHT22;5835;42.930;25.178;2023-02-12T12:26:23;5.40;99.90
11559;DHT22;5835;42.930;25.178;2023-02-12T12:28:56;5.50;99.90
11559;DHT22;5835;42.930;25.178;2023-02-12T12:31:32;5.30;99.90
11559;DHT22;5835;42.930;25.178;2023-02-12T12:34:06;5.40;99.90
11559;DHT22;5835;42.930;25.178;2023-02-12T12:36:59;5.50;99.90
11559;DHT22;5835;42.930;25.178;2023-02-12T12:39:34;5.70;99.90
11559;DHT22;5835;42.930;25.178;2023-02-12T12:45:17;5.90;99.90
11559;DHT22;5835;42.930;25.178;2023-02-12T12:47:59;6.10;99.90
11559;DHT22;5835;42.930;25.178;2023-02-12T12:50:41;5.80;99.90
11559;DHT22;5835;42.930;25.178;2023-02-12T12:53:32;5.60;99.90
11559;DHT22;5835;42.930;25.178;2023-02-12T12:56:26;5.30;99.90
11559;DHT22;5835;42.930;25.178;2023-02-12T12:59:22;5.30;99.90
11559;DHT22;5835;42.930;25.178;2023-02-12T13:02:23;5.30;99.90
11559;DHT22;5835;42.930;25.178;2023-02-12T13:05:20;5.30;99.90
11559;DHT22;5835;42.930;25.178;2023-02-12T13:07:55;5.00;99.90
11559;DHT22;5835;42.930;25.178;2023-02-12T13:10:33;5.00;99.90
11559;DHT22;5835;42.930;25.178;2023-02-12T13:13:16;4.90;99.90
11559;DHT22;5835;42.930;25.178;2023-02-12T13:15:50;4.90;99.90
11559;DHT22;5835;42.930;25.178;2023-02-12T13:18:29;4.90;99.90
11559;DHT22;5835;42.930;25.178;2023-02-12T13:21:12;5.00;99.90
11559;DHT22;5835;42.930;25.178;2023-02-12T13:23:47;5.20;99.90
11559;DHT22;5835;42.930;25.178;2023-02-12T13:26:24;5.20;99.90
11559;DHT22;5835;42.930;25.178;2023-02-12T13:29:00;5.10;99.90
11559;DHT22;5835;42.930;25.178;2023-02-12T13:31:34;4.90;99.90
11559;DHT22;5835;42.930;25.178;2023-02-12T13:34:04;4.90;99.90
11559;DHT22;5835;42.930;25.178;2023-02-12T13:36:35;4.70;99.90
11559;DHT22;5835;42.930;25.178;2023-02-12T13:39:11;4.60;99.90
11559;DHT22;5835;42.930;25.178;2023-02-12T13:41:56;4.60;99.90
11559;DHT22;5835;42.930;25.178;2023-02-12T13:44:29;4.60;99.90
11559;DHT22;5835;42.930;25.178;2023-02-12T13:47:08;4.50;99.90
11559;DHT22;5835;42.930;25.178;2023-02-12T13:49:43;4.50;99.90
11559;DHT22;5835;42.930;25.178;2023-02-12T13:52:18;4.50;99.90
11559;DHT22;5835;42.930;25.178;2023-02-12T13:54:56;4.50;99.90
11559;DHT22;5835;42.930;25.178;2023-02-12T13:57:29;4.40;99.90
11559;DHT22;5835;42.930;25.178;2023-02-12T13:59:56;4.40;99.90
11559;DHT22;5835;42.930;25.178;2023-02-12T14:02:43;4.40;99.90
11559;DHT22;5835;42.930;25.178;2023-02-12T14:05:29;4.30;99.90
11559;DHT22;5835;42.930;25.178;2023-02-12T14:07:59;4.30;99.90
11559;DHT22;5835;42.930;25.178;2023-02-12T14:10:31;4.20;99.90
11559;DHT22;5835;42.930;25.178;2023-02-12T14:13:11;4.20;99.90
11559;DHT22;5835;42.930;25.178;2023-02-12T14:15:40;4.20;99.90
11559;DHT22;5835;42.930;25.178;2023-02-12T14:18:30;4.10;99.90
11559;DHT22;5835;42.930;25.178;2023-02-12T14:24:45;4.00;99.90
11559;DHT22;5835;42.930;25.178;2023-02-12T14:30:28;3.80;99.90
11559;DHT22;5835;42.930;25.178;2023-02-12T14:33:20;3.80;99.90
11559;DHT22;5835;42.930;25.178;2023-02-12T14:38:59;3.70;99.90
11559;DHT22;5835;42.930;25.178;2023-02-12T14:41:30;3.70;1.00
11559;DHT22;5835;42.930;25.178;2023-02-12T14:50:21;3.60;99.90
11559;DHT22;5835;42.930;25.178;2023-02-12T14:53:02;3.60;1.00
11559;DHT22;5835;42.930;25.178;2023-02-12T14:55:33;3.60;1.00
11559;DHT22;5835;42.930;25.178;2023-02-12T14:58:04;3.50;1.00
11559;DHT22;5835;42.930;25.178;2023-02-12T15:00:38;3.60;1.00
11559;DHT22;5835;42.930;25.178;2023-02-12T15:03:20;3.50;1.00
11559;DHT22;5835;42.930;25.178;2023-02-12T15:05:58;3.50;1.00
11559;DHT22;5835;42.930;25.178;2023-02-12T15:08:42;3.40;1.00
11559;DHT22;5835;42.930;25.178;2023-02-12T15:11:25;3.30;1.00
11559;DHT22;5835;42.930;25.178;2023-02-12T15:13:58;3.30;28.70
11559;DHT22;5835;42.930;25.178;2023-02-12T15:16:37;3.30;99.90
11559;DHT22;5835;42.930;25.178;2023-02-12T15:19:18;3.20;91.20
11559;DHT22;5835;42.930;25.178;2023-02-12T15:21:47;3.20;99.90
11559;DHT22;5835;42.930;25.178;2023-02-12T15:24:21;3.20;2.80
11559;DHT22;5835;42.930;25.178;2023-02-12T15:26:50;3.20;99.90
11559;DHT22;5835;42.930;25.178;2023-02-12T15:29:21;3.20;99.90
11559;DHT22;5835;42.930;25.178;2023-02-12T15:31:52;3.10;99.90
11559;DHT22;5835;42.930;25.178;2023-02-12T15:34:24;3.10;99.90
11559;DHT22;5835;42.930;25.178;2023-02-12T15:36:56;3.00;99.90
11559;DHT22;5835;42.930;25.178;2023-02-12T15:39:26;3.00;99.90
11559;DHT22;5835;42.930;25.178;2023-02-12T15:41:54;3.00;1.00
11559;DHT22;5835;42.930;25.178;2023-02-12T15:44:24;2.90;1.00
11559;DHT22;5835;42.930;25.178;2023-02-12T15:46:54;2.90;1.00
11559;DHT22;5835;42.930;25.178;2023-02-12T15:49:26;2.80;69.10
11559;DHT22;5835;42.930;25.178;2023-02-12T15:51:55;2.80;99.90
11559;DHT22;5835;42.930;25.178;2023-02-12T15:54:23;2.80;99.90
11559;DHT22;5835;42.930;25.178;2023-02-12T15:56:51;2.80;99.90
11559;DHT22;5835;42.930;25.178;2023-02-12T15:59:21;2.70;99.90
11559;DHT22;5835;42.930;25.178;2023-02-12T16:01:56;2.70;99.90
11559;DHT22;5835;42.930;25.178;2023-02-12T16:04:29;2.70;99.90
11559;DHT22;5835;42.930;25.178;2023-02-12T16:06:58;2.70;1.00
11559;DHT22;5835;42.930;25.178;2023-02-12T16:09:29;2.70;99.90
11559;DHT22;5835;42.930;25.178;2023-02-12T16:11:59;2.60;1.00
11559;DHT22;5835;42.930;25.178;2023-02-12T16:14:32;2.60;1.00
11559;DHT22;5835;42.930;25.178;2023-02-12T16:17:19;2.60;99.90
11559;DHT22;5835;42.930;25.178;2023-02-12T16:19:58;2.70;99.90
11559;DHT22;5835;42.930;25.178;2023-02-12T16:22:29;2.60;99.90
11559;DHT22;5835;42.930;25.178;2023-02-12T16:24:58;2.60;1.00
11559;DHT22;5835;42.930;25.178;2023-02-12T16:27:28;2.60;1.00
11559;DHT22;5835;42.930;25.178;2023-02-12T16:29:57;2.60;99.90
11559;DHT22;5835;42.930;25.178;2023-02-12T16:32:29;2.60;99.90
11559;DHT22;5835;42.930;25.178;2023-02-12T16:35:24;2.70;99.90
11559;DHT22;5835;42.930;25.178;2023-02-12T16:37:52;2.60;99.90
11559;DHT22;5835;42.930;25.178;2023-02-12T16:40:29;2.60;99.90
11559;DHT22;5835;42.930;25.178;2023-02-12T16:42:58;2.70;99.90